createdAt,value
2023-12-05T00:00:43.150Z,95.70
2023-12-05T00:03:11.486Z,95.70
2023-12-05T00:05:39.444Z,95.70
2023-12-05T00:08:07.363Z,95.70
2023-12-05T00:10:35.376Z,95.70
2023-12-05T00:13:04.731Z,95.70
2023-12-05T00:15:32.676Z,95.80
2023-12-05T00:18:02.070Z,95.80
2023-12-05T00:20:30.634Z,95.80
2023-12-05T00:22:58.579Z,95.80
2023-12-05T00:25:26.490Z,95.80
2023-12-05T00:27:54.408Z,95.80
2023-12-05T00:30:22.509Z,95.80
2023-12-05T00:32:50.910Z,95.70
2023-12-05T00:35:21.055Z,95.80
2023-12-05T00:37:48.995Z,95.60
2023-12-05T00:40:17.511Z,95.70
2023-12-05T00:42:45.456Z,95.80
2023-12-05T00:45:15.991Z,95.70
2023-12-05T00:47:44.048Z,95.80
2023-12-05T00:50:11.986Z,95.80
2023-12-05T00:52:41.238Z,95.80
2023-12-05T00:55:09.312Z,95.80
2023-12-05T00:57:37.332Z,95.80
2023-12-05T01:00:07.017Z,95.80
2023-12-05T01:02:34.934Z,95.90
2023-12-05T01:05:03.764Z,95.80
2023-12-05T01:07:32.356Z,95.80
2023-12-05T01:10:01.693Z,95.90
2023-12-05T01:12:29.717Z,95.80
2023-12-05T01:14:57.749Z,95.70
2023-12-05T01:17:25.721Z,95.80
2023-12-05T01:19:53.711Z,95.80
2023-12-05T01:22:21.650Z,95.80
2023-12-05T01:24:55.680Z,95.80
2023-12-05T01:27:25.052Z,95.80
2023-12-05T01:29:53.231Z,95.80
2023-12-05T01:32:21.189Z,95.80
2023-12-05T01:34:49.316Z,95.70
2023-12-05T01:37:17.366Z,95.70
2023-12-05T01:39:45.443Z,95.70
2023-12-05T01:42:13.668Z,95.70
2023-12-05T01:44:43.376Z,95.80
2023-12-05T01:47:12.510Z,95.80
2023-12-05T01:49:42.029Z,95.80
2023-12-05T01:52:10.260Z,95.80
2023-12-05T01:54:38.565Z,95.80
2023-12-05T01:57:08.496Z,95.80
2023-12-05T01:59:36.586Z,95.70
2023-12-05T02:02:06.251Z,95.70
2023-12-05T02:04:35.663Z,95.70
2023-12-05T02:07:05.567Z,95.70
2023-12-05T02:09:34.334Z,95.60
2023-12-05T02:12:02.380Z,95.60
2023-12-05T02:14:33.192Z,95.60
2023-12-05T02:17:11.461Z,95.60
2023-12-05T02:19:46.948Z,95.60
2023-12-05T02:22:40.978Z,95.70
2023-12-05T02:25:18.507Z,95.60
2023-12-05T02:27:49.059Z,95.60
2023-12-05T02:30:17.757Z,95.60
2023-12-05T02:32:45.945Z,95.60
2023-12-05T02:35:15.091Z,95.60
2023-12-05T02:37:54.011Z,95.60
2023-12-05T02:40:28.468Z,95.70
2023-12-05T02:42:58.898Z,95.70
2023-12-05T02:45:29.042Z,95.70
2023-12-05T02:47:59.716Z,95.70
2023-12-05T02:50:28.643Z,95.70
2023-12-05T02:52:56.522Z,95.60
2023-12-05T02:55:25.187Z,95.60
2023-12-05T02:57:53.109Z,95.60
2023-12-05T03:00:22.498Z,95.70
2023-12-05T03:02:50.727Z,95.70
2023-12-05T03:05:19.980Z,95.70
2023-12-05T03:07:47.939Z,95.60
2023-12-05T03:10:16.416Z,95.60
2023-12-05T03:12:44.390Z,95.60
2023-12-05T03:15:12.622Z,95.60
2023-12-05T03:17:41.945Z,95.70
2023-12-05T03:20:10.825Z,95.70
2023-12-05T03:22:38.766Z,95.70
2023-12-05T03:25:07.650Z,95.70
2023-12-05T03:27:35.564Z,95.70
2023-12-05T03:30:04.157Z,95.70
2023-12-05T03:32:32.377Z,95.80
2023-12-05T03:35:01.639Z,95.70
2023-12-05T03:37:29.622Z,95.70
2023-12-05T03:39:57.662Z,95.70
2023-12-05T03:42:25.553Z,95.60
2023-12-05T03:44:53.426Z,95.70
2023-12-05T03:47:21.275Z,95.70
2023-12-05T03:49:49.561Z,95.70
2023-12-05T03:52:18.791Z,95.70
2023-12-05T03:54:46.637Z,95.90
2023-12-05T03:57:14.894Z,95.80
2023-12-05T03:59:42.848Z,95.80
2023-12-05T04:02:10.839Z,95.90
2023-12-05T04:04:38.886Z,95.90
2023-12-05T04:07:06.996Z,95.90
2023-12-05T04:09:36.306Z,95.90
2023-12-05T04:12:04.995Z,95.90
2023-12-05T04:14:32.971Z,95.80
2023-12-05T04:17:00.883Z,95.80
2023-12-05T04:19:29.032Z,95.80
2023-12-05T04:21:57.949Z,95.70
2023-12-05T04:24:25.981Z,95.80
2023-12-05T04:26:55.200Z,95.90
2023-12-05T04:29:23.043Z,95.80
2023-12-05T04:31:51.278Z,95.80
2023-12-05T04:34:19.214Z,95.80
2023-12-05T04:36:47.290Z,95.80
2023-12-05T04:39:15.240Z,95.80
2023-12-05T04:41:43.126Z,95.40
2023-12-05T04:44:12.488Z,95.70
2023-12-05T04:46:40.443Z,95.70
2023-12-05T04:49:08.696Z,95.70
2023-12-05T04:51:36.714Z,95.70
2023-12-05T04:54:05.419Z,95.80
2023-12-05T04:56:33.389Z,95.70
2023-12-05T04:59:01.232Z,95.60
2023-12-05T05:01:30.799Z,95.60
2023-12-05T05:04:02.470Z,95.70
2023-12-05T05:06:32.424Z,95.90
2023-12-05T05:09:00.339Z,95.70
2023-12-05T05:11:28.926Z,95.70
2023-12-05T05:13:58.857Z,95.70
2023-12-05T05:16:27.937Z,95.70
2023-12-05T05:18:57.261Z,95.70
2023-12-05T05:21:25.839Z,95.70
2023-12-05T05:23:53.719Z,95.70
2023-12-05T05:26:21.919Z,95.70
2023-12-05T05:28:49.804Z,95.70
2023-12-05T05:31:17.923Z,95.60
2023-12-05T05:33:45.852Z,95.70
2023-12-05T05:36:16.934Z,95.70
2023-12-05T05:38:44.938Z,95.70
2023-12-05T05:41:12.926Z,95.60
2023-12-05T05:43:41.391Z,95.70
2023-12-05T05:46:09.648Z,95.60
2023-12-05T05:48:37.557Z,95.60
2023-12-05T05:51:07.563Z,95.60
2023-12-05T05:53:36.807Z,95.70
2023-12-05T05:56:05.037Z,95.70
2023-12-05T05:58:32.930Z,95.70
2023-12-05T06:01:00.843Z,95.70
2023-12-05T06:03:32.055Z,95.70
2023-12-05T06:06:00.685Z,95.70
2023-12-05T06:08:28.886Z,95.70
2023-12-05T06:10:58.629Z,95.60
2023-12-05T06:13:26.712Z,95.60
2023-12-05T06:15:54.780Z,95.50
2023-12-05T06:18:23.325Z,95.70
2023-12-05T06:20:53.070Z,95.70
2023-12-05T06:23:21.072Z,95.60
2023-12-05T06:25:48.923Z,95.60
2023-12-05T06:28:18.346Z,95.60
2023-12-05T06:30:46.319Z,95.60
2023-12-05T06:33:14.889Z,95.80
2023-12-05T06:35:42.900Z,95.60
2023-12-05T06:38:10.793Z,95.60
2023-12-05T06:40:38.611Z,95.60
2023-12-05T06:43:06.469Z,95.70
2023-12-05T06:45:36.769Z,95.70
2023-12-05T06:48:05.839Z,95.70
2023-12-05T06:50:34.054Z,95.60
2023-12-05T06:53:03.280Z,95.70
2023-12-05T06:55:31.476Z,95.70
2023-12-05T06:57:59.564Z,95.50
2023-12-05T07:00:27.548Z,95.60
2023-12-05T07:02:56.866Z,95.60
2023-12-05T07:05:25.010Z,95.60
2023-12-05T07:07:53.150Z,95.60
2023-12-05T07:10:21.107Z,95.70
2023-12-05T07:12:49.337Z,95.70
2023-12-05T07:15:17.608Z,95.80
2023-12-05T07:17:45.667Z,95.70
2023-12-05T07:20:15.621Z,95.70
2023-12-05T07:22:44.423Z,95.70
2023-12-05T07:25:12.357Z,95.70
2023-12-05T07:27:40.499Z,95.70
2023-12-05T07:30:09.997Z,95.60
2023-12-05T07:32:38.288Z,95.70
2023-12-05T07:35:07.230Z,95.70
2023-12-05T07:37:36.635Z,95.70
2023-12-05T07:40:06.844Z,95.70
2023-12-05T07:42:34.848Z,95.70
2023-12-05T07:45:05.663Z,95.70
2023-12-05T07:47:33.550Z,95.70
2023-12-05T07:50:01.563Z,95.70
2023-12-05T07:52:29.629Z,95.90
2023-12-05T07:54:59.254Z,95.60
2023-12-05T07:57:27.701Z,95.70
2023-12-05T07:59:55.583Z,95.80
2023-12-05T08:02:34.959Z,95.80
2023-12-05T08:05:02.921Z,95.80
2023-12-05T08:07:30.903Z,95.70
2023-12-05T08:10:00.192Z,95.80
2023-12-05T08:12:28.144Z,95.70
2023-12-05T08:14:56.027Z,95.70
2023-12-05T08:17:24.104Z,95.80
2023-12-05T08:19:55.278Z,95.80
2023-12-05T08:22:23.256Z,95.80
2023-12-05T08:24:52.416Z,95.80
2023-12-05T08:27:21.870Z,95.70
2023-12-05T08:29:49.737Z,95.60
2023-12-05T08:32:17.647Z,95.70
2023-12-05T08:34:45.934Z,95.70
2023-12-05T08:37:13.911Z,95.70
2023-12-05T08:39:42.765Z,95.80
2023-12-05T08:42:10.682Z,95.70
2023-12-05T08:44:40.084Z,95.80
2023-12-05T08:47:07.979Z,95.80
2023-12-05T08:49:35.957Z,95.80
2023-12-05T08:52:04.411Z,95.80
2023-12-05T08:54:32.301Z,95.80
2023-12-05T08:57:00.218Z,95.80
2023-12-05T08:59:28.085Z,95.80
2023-12-05T09:01:57.561Z,95.80
2023-12-05T09:04:25.681Z,95.90
2023-12-05T09:06:53.781Z,95.90
2023-12-05T09:09:21.796Z,95.90
2023-12-05T09:11:49.801Z,95.90
2023-12-05T09:14:17.709Z,96.00
2023-12-05T09:16:45.620Z,96.00
2023-12-05T09:19:14.912Z,96.00
2023-12-05T09:21:43.018Z,96.00
2023-12-05T09:24:11.082Z,96.00
2023-12-05T09:26:39.039Z,96.20
2023-12-05T09:29:06.903Z,96.10
2023-12-05T09:31:34.770Z,96.10
2023-12-05T09:34:04.715Z,96.10
2023-12-05T09:36:33.973Z,96.00
2023-12-05T09:39:01.815Z,95.90
2023-12-05T09:41:30.101Z,95.90
2023-12-05T09:44:01.881Z,95.80
2023-12-05T09:46:37.341Z,95.80
2023-12-05T09:49:09.057Z,95.80
2023-12-05T09:51:38.600Z,95.80
2023-12-05T09:54:06.575Z,95.80
2023-12-05T09:56:34.724Z,95.80
2023-12-05T09:59:04.607Z,95.80
2023-12-05T10:01:36.203Z,95.90
2023-12-05T10:04:06.957Z,95.90
2023-12-05T10:06:37.274Z,95.90
2023-12-05T10:09:09.856Z,95.90
2023-12-05T10:11:38.825Z,95.90
2023-12-05T10:14:07.476Z,95.90
2023-12-05T10:16:36.162Z,95.90
2023-12-05T10:19:04.341Z,95.90
2023-12-05T10:21:32.483Z,96.10
2023-12-05T10:24:01.208Z,95.80
2023-12-05T10:26:30.877Z,95.80
2023-12-05T10:28:58.971Z,95.80
2023-12-05T10:31:27.182Z,95.80
2023-12-05T10:34:06.222Z,95.80
2023-12-05T10:36:34.310Z,95.80
2023-12-05T10:39:03.959Z,95.70
2023-12-05T10:41:33.996Z,95.70
2023-12-05T10:44:02.707Z,95.60
2023-12-05T10:46:30.778Z,95.60
2023-12-05T10:48:58.898Z,95.70
2023-12-05T10:51:28.217Z,95.50
2023-12-05T10:53:57.767Z,95.50
2023-12-05T10:56:26.013Z,95.50
2023-12-05T10:58:55.639Z,95.40
2023-12-05T11:01:23.798Z,95.40
2023-12-05T11:03:53.289Z,95.30
2023-12-05T11:06:22.476Z,95.30
2023-12-05T11:08:50.783Z,95.40
2023-12-05T11:11:19.797Z,95.70
2023-12-05T11:13:49.425Z,95.40
2023-12-05T11:16:25.473Z,95.50
2023-12-05T11:18:59.740Z,95.40
2023-12-05T11:21:44.519Z,95.40
2023-12-05T11:24:27.232Z,95.40
2023-12-05T11:27:22.707Z,95.40
2023-12-05T11:30:08.650Z,95.40
2023-12-05T11:32:46.721Z,95.50
2023-12-05T11:35:22.738Z,95.60
2023-12-05T11:38:06.821Z,95.70
2023-12-05T11:40:34.896Z,95.70
2023-12-05T11:43:06.933Z,95.60
2023-12-05T11:45:37.175Z,95.70
2023-12-05T11:48:08.705Z,95.60
2023-12-05T11:50:42.478Z,95.50
2023-12-05T11:53:11.314Z,95.70
2023-12-05T11:55:42.729Z,95.60
2023-12-05T11:58:32.199Z,95.70
2023-12-05T12:01:05.021Z,95.70
2023-12-05T12:03:50.946Z,95.60
2023-12-05T12:06:20.111Z,95.50
2023-12-05T12:08:50.056Z,95.50
2023-12-05T12:11:18.090Z,95.50
2023-12-05T12:13:46.126Z,95.50
2023-12-05T12:16:15.712Z,95.40
2023-12-05T12:18:50.847Z,95.40
2023-12-05T12:21:29.431Z,95.30
2023-12-05T12:23:59.283Z,95.30
2023-12-05T12:26:28.646Z,95.30
2023-12-05T12:28:57.429Z,95.30
2023-12-05T12:31:27.971Z,95.20
2023-12-05T12:33:58.212Z,95.40
2023-12-05T12:36:27.824Z,95.40
2023-12-05T12:38:57.244Z,95.40
2023-12-05T12:41:25.742Z,95.40
2023-12-05T12:43:54.670Z,95.40
2023-12-05T12:46:22.579Z,95.70
2023-12-05T12:48:52.853Z,95.50
2023-12-05T12:51:20.961Z,95.30
2023-12-05T12:53:50.656Z,95.40
2023-12-05T12:56:19.114Z,95.30
2023-12-05T12:58:48.632Z,95.30
2023-12-05T13:01:16.713Z,95.30
2023-12-05T13:03:45.742Z,95.30
2023-12-05T13:06:14.016Z,95.40
2023-12-05T13:08:42.108Z,95.40
2023-12-05T13:11:11.528Z,95.30
2023-12-05T13:13:40.073Z,95.30
2023-12-05T13:16:08.684Z,95.20
2023-12-05T13:18:44.342Z,95.20
2023-12-05T13:21:13.456Z,95.10
2023-12-05T13:23:43.121Z,95.00
2023-12-05T13:26:12.532Z,95.00
2023-12-05T13:28:40.847Z,95.00
2023-12-05T13:31:08.778Z,95.00
2023-12-05T13:33:36.803Z,95.00
2023-12-05T13:36:05.308Z,95.10
2023-12-05T13:38:33.394Z,95.10
2023-12-05T13:41:01.305Z,95.40
2023-12-05T13:43:30.772Z,95.10
2023-12-05T13:45:58.735Z,95.20
2023-12-05T13:48:26.793Z,95.10
2023-12-05T13:50:54.734Z,95.10
2023-12-05T13:53:24.567Z,95.40
2023-12-05T13:55:52.642Z,95.10
2023-12-05T13:58:20.577Z,95.10
2023-12-05T14:00:50.078Z,95.00
2023-12-05T14:03:22.168Z,95.10
2023-12-05T14:05:54.366Z,95.10
2023-12-05T14:08:22.324Z,94.90
2023-12-05T14:10:51.380Z,95.00
2023-12-05T14:13:19.351Z,95.20
2023-12-05T14:15:47.341Z,94.90
2023-12-05T14:18:16.737Z,94.90
2023-12-05T14:20:44.596Z,94.90
2023-12-05T14:23:12.687Z,94.90
2023-12-05T14:25:40.545Z,95.00
2023-12-05T14:28:08.490Z,94.90
2023-12-05T14:30:37.461Z,94.90
2023-12-05T14:33:05.462Z,94.80
2023-12-05T14:35:34.825Z,94.80
2023-12-05T14:38:03.452Z,94.80
2023-12-05T14:40:31.851Z,94.70
2023-12-05T14:43:00.814Z,94.70
2023-12-05T14:45:28.768Z,94.70
2023-12-05T14:47:56.787Z,94.70
2023-12-05T14:50:24.819Z,94.70
2023-12-05T14:52:54.185Z,94.70
2023-12-05T14:55:22.305Z,94.70
2023-12-05T14:57:50.874Z,94.80
2023-12-05T15:00:20.422Z,94.80
2023-12-05T15:02:48.430Z,94.70
2023-12-05T15:05:17.929Z,94.60
2023-12-05T15:07:46.162Z,94.50
2023-12-05T15:10:17.593Z,94.50
2023-12-05T15:12:46.213Z,94.30
2023-12-05T15:15:14.661Z,94.50
2023-12-05T15:17:42.656Z,94.50
2023-12-05T15:20:20.150Z,94.60
2023-12-05T15:22:52.282Z,94.60
2023-12-05T15:25:21.792Z,94.60
2023-12-05T15:27:49.842Z,94.50
2023-12-05T15:30:17.869Z,94.60
2023-12-05T15:32:51.514Z,94.50
2023-12-05T15:35:20.360Z,94.60
2023-12-05T15:37:48.305Z,94.60
2023-12-05T15:40:17.280Z,94.60
2023-12-05T15:42:49.048Z,94.70
2023-12-05T15:45:19.056Z,94.70
2023-12-05T15:47:47.011Z,94.70
2023-12-05T15:50:18.112Z,95.00
2023-12-05T15:52:46.959Z,94.50
2023-12-05T15:55:14.870Z,94.60
2023-12-05T15:57:44.178Z,94.60
2023-12-05T16:00:14.954Z,94.60
2023-12-05T16:02:45.251Z,94.60
2023-12-05T16:05:15.171Z,94.60
2023-12-05T16:07:43.189Z,94.60
2023-12-05T16:10:12.221Z,94.50
2023-12-05T16:12:40.212Z,94.60
2023-12-05T16:15:09.101Z,94.50
2023-12-05T16:17:38.561Z,94.60
2023-12-05T16:20:07.164Z,94.60
2023-12-05T16:22:35.115Z,94.60
2023-12-05T16:25:04.053Z,94.60
2023-12-05T16:27:32.893Z,94.60
2023-12-05T16:30:01.106Z,94.50
2023-12-05T16:32:29.688Z,94.60
2023-12-05T16:34:59.156Z,94.60
2023-12-05T16:37:27.280Z,94.60
2023-12-05T16:39:55.213Z,94.60
2023-12-05T16:42:23.111Z,94.60
2023-12-05T16:44:51.081Z,94.60
2023-12-05T16:47:19.289Z,94.40
2023-12-05T16:49:47.502Z,94.60
2023-12-05T16:52:16.888Z,94.50
2023-12-05T16:54:44.906Z,94.50
2023-12-05T16:57:12.829Z,94.60
2023-12-05T16:59:40.838Z,94.90
2023-12-05T17:02:08.933Z,94.60
2023-12-05T17:04:37.130Z,94.60
2023-12-05T17:07:05.347Z,95.50
2023-12-05T17:09:34.735Z,94.70
2023-12-05T17:12:03.352Z,94.70
2023-12-05T17:14:32.986Z,94.80
2023-12-05T17:17:04.296Z,94.60
2023-12-05T17:19:32.387Z,94.70
2023-12-05T17:22:01.547Z,94.70
2023-12-05T17:24:29.692Z,94.70
2023-12-05T17:27:00.033Z,94.70
2023-12-05T17:29:29.268Z,94.80
2023-12-05T17:31:57.447Z,95.00
2023-12-05T17:34:25.539Z,94.70
2023-12-05T17:36:53.671Z,94.80
2023-12-05T17:39:21.618Z,94.50
2023-12-05T17:41:50.799Z,94.80
2023-12-05T17:44:20.082Z,94.80
2023-12-05T17:46:48.238Z,94.70
2023-12-05T17:49:16.671Z,94.70
2023-12-05T17:51:44.625Z,94.70
2023-12-05T17:54:13.771Z,94.70
2023-12-05T17:56:41.958Z,94.80
2023-12-05T17:59:10.050Z,94.80
2023-12-05T18:01:39.515Z,94.70
2023-12-05T18:04:07.598Z,94.60
2023-12-05T18:06:35.614Z,94.60
2023-12-05T18:09:03.916Z,94.70
2023-12-05T18:11:34.792Z,94.70
2023-12-05T18:14:02.701Z,94.70
2023-12-05T18:16:30.783Z,94.70
2023-12-05T18:19:03.329Z,94.70
2023-12-05T18:21:31.715Z,94.70
2023-12-05T18:23:59.810Z,94.40
2023-12-05T18:26:27.982Z,94.60
2023-12-05T18:28:56.090Z,94.50
2023-12-05T18:31:24.262Z,94.40
2023-12-05T18:33:53.183Z,94.40
2023-12-05T18:36:22.894Z,94.40
2023-12-05T18:38:51.047Z,94.30
2023-12-05T18:41:19.022Z,94.30
2023-12-05T18:43:47.548Z,94.40
2023-12-05T18:46:15.936Z,94.40
2023-12-05T18:48:44.034Z,94.50
2023-12-05T18:51:12.236Z,94.40
2023-12-05T18:53:43.648Z,94.40
2023-12-05T18:56:12.486Z,94.40
2023-12-05T18:58:40.555Z,94.30
2023-12-05T19:01:08.715Z,94.30
2023-12-05T19:03:36.764Z,94.30
2023-12-05T19:06:08.103Z,94.30
2023-12-05T19:08:36.058Z,94.30
2023-12-05T19:11:06.342Z,94.30
2023-12-05T19:13:34.317Z,94.30
2023-12-05T19:16:04.442Z,94.30
2023-12-05T19:18:32.521Z,94.30
2023-12-05T19:21:00.505Z,94.30
2023-12-05T19:23:28.460Z,94.30
2023-12-05T19:25:56.442Z,94.20
2023-12-05T19:28:27.421Z,94.20
2023-12-05T19:30:55.339Z,94.20
2023-12-05T19:33:23.330Z,94.20
2023-12-05T19:35:51.773Z,94.20
2023-12-05T19:38:20.548Z,94.10
2023-12-05T19:40:51.012Z,94.10
2023-12-05T19:43:19.654Z,94.10
2023-12-05T19:45:48.956Z,94.10
2023-12-05T19:48:18.846Z,94.10
2023-12-05T19:50:47.436Z,94.10
2023-12-05T19:53:15.970Z,94.30
2023-12-05T19:55:48.709Z,94.00
2023-12-05T19:58:16.629Z,94.10
2023-12-05T20:00:45.058Z,94.00
2023-12-05T20:03:15.844Z,94.10
2023-12-05T20:05:43.726Z,94.10
2023-12-05T20:08:12.206Z,94.10
2023-12-05T20:10:40.145Z,94.40
2023-12-05T20:13:08.253Z,94.10
2023-12-05T20:15:36.394Z,94.10
2023-12-05T20:18:04.572Z,93.90
2023-12-05T20:20:33.996Z,93.90
2023-12-05T20:23:02.030Z,93.90
2023-12-05T20:25:29.961Z,93.90
2023-12-05T20:27:57.959Z,93.90
2023-12-05T20:30:27.128Z,93.90
2023-12-05T20:32:55.075Z,93.90
2023-12-05T20:35:23.176Z,93.90
2023-12-05T20:37:52.471Z,93.80
2023-12-05T20:40:20.811Z,93.80
2023-12-05T20:42:48.791Z,93.80
2023-12-05T20:45:16.791Z,93.80
2023-12-05T20:47:44.937Z,93.80
2023-12-05T20:50:12.796Z,93.80
2023-12-05T20:52:41.708Z,93.80
2023-12-05T20:55:11.280Z,93.90
2023-12-05T20:57:39.281Z,93.80
2023-12-05T21:00:08.652Z,93.80
2023-12-05T21:02:36.621Z,93.90
2023-12-05T21:05:05.000Z,93.90
2023-12-05T21:07:33.449Z,93.90
2023-12-05T21:10:01.896Z,94.20
2023-12-05T21:12:31.258Z,94.00
2023-12-05T21:14:59.149Z,93.80
2023-12-05T21:17:28.684Z,93.80
2023-12-05T21:19:56.722Z,93.80
2023-12-05T21:22:24.644Z,93.80
2023-12-05T21:24:52.601Z,93.80
2023-12-05T21:27:20.900Z,93.80
2023-12-05T21:29:50.657Z,93.80
2023-12-05T21:32:18.691Z,93.80
2023-12-05T21:34:46.709Z,93.80
2023-12-05T21:37:15.937Z,93.90
2023-12-05T21:39:43.953Z,93.80
2023-12-05T21:42:11.984Z,93.90
2023-12-05T21:44:43.106Z,93.90
2023-12-05T21:47:13.749Z,93.90
2023-12-05T21:49:41.878Z,94.00
2023-12-05T21:52:10.150Z,93.90
2023-12-05T21:54:38.134Z,94.00
2023-12-05T21:57:06.440Z,94.00
2023-12-05T21:59:34.364Z,94.00
2023-12-05T22:02:02.322Z,94.10
2023-12-05T22:04:33.637Z,94.10
2023-12-05T22:07:01.832Z,94.00
2023-12-05T22:09:29.932Z,94.10
2023-12-05T22:11:58.164Z,94.20
2023-12-05T22:14:26.147Z,94.20
2023-12-05T22:16:54.077Z,94.90
2023-12-05T22:19:22.179Z,94.20
2023-12-05T22:21:52.609Z,94.20
2023-12-05T22:24:29.453Z,94.30
2023-12-05T22:27:00.634Z,94.00
2023-12-05T22:29:28.726Z,94.30
2023-12-05T22:31:57.819Z,94.50
2023-12-05T22:34:26.063Z,94.30
2023-12-05T22:36:55.799Z,94.10
2023-12-05T22:39:23.759Z,94.30
2023-12-05T22:41:52.319Z,94.30
2023-12-05T22:44:20.455Z,94.30
2023-12-05T22:46:48.313Z,94.30
2023-12-05T22:49:16.360Z,94.40
2023-12-05T22:51:44.479Z,94.30
2023-12-05T22:54:14.032Z,94.30
2023-12-05T22:56:42.056Z,94.30
2023-12-05T22:59:09.962Z,94.30
2023-12-05T23:01:38.210Z,94.40
2023-12-05T23:04:06.384Z,94.40
2023-12-05T23:06:34.346Z,94.40
2023-12-05T23:09:02.305Z,94.30
2023-12-05T23:11:31.907Z,94.40
2023-12-05T23:13:59.930Z,94.30
2023-12-05T23:16:27.818Z,94.40
2023-12-05T23:18:55.785Z,94.50
2023-12-05T23:21:23.764Z,94.50
2023-12-05T23:23:52.385Z,94.40
2023-12-05T23:26:20.281Z,94.50
2023-12-05T23:28:50.191Z,94.40
2023-12-05T23:31:18.245Z,94.60
2023-12-05T23:33:46.375Z,94.60
2023-12-05T23:36:15.764Z,94.80
2023-12-05T23:38:43.788Z,94.80
2023-12-05T23:41:12.640Z,94.60
2023-12-05T23:43:40.776Z,94.60
2023-12-05T23:46:10.127Z,94.70
2023-12-05T23:48:38.191Z,94.70
2023-12-05T23:51:06.934Z,94.70
2023-12-05T23:53:35.167Z,94.80
2023-12-05T23:56:03.005Z,94.80
2023-12-05T23:58:31.187Z,94.80
